Time;durP1;ratioP1;P1;durP2;ratioP2;P2;SDS_P1;SDS_P2;PMS_P1;PMS_P2;Temp;Humidity;BMP_temperature;BMP_pressure;BME280_temperature;BME280_humidity;BME280_pressure;Samples;Min_cycle;Max_cycle;Signal;HPM_P1;HPM_P2
2023/07/20 00:01:14;;;;;;;17.85;6.22;;;;;;;26.64;72.03;100114.25;5059847;28;20060;-84
2023/07/20 00:03:39;;;;;;;18.00;5.85;;;;;;;26.56;72.14;100111.88;5064405;28;20025;-85
2023/07/20 00:06:05;;;;;;;16.42;6.93;;;;;;;26.43;72.25;100090.06;5053032;28;20121;-84
2023/07/20 00:08:30;;;;;;;24.20;5.60;;;;;;;26.43;72.44;100101.94;5051391;28;20516;-84
2023/07/20 00:10:56;;;;;;;20.23;6.63;;;;;;;26.45;72.15;100093.44;5051963;28;20033;-85
2023/07/20 00:13:22;;;;;;;18.48;6.95;;;;;;;26.44;71.94;100097.25;5056645;28;20036;-84
2023/07/20 00:15:47;;;;;;;21.08;6.65;;;;;;;26.39;71.63;100084.19;5064568;28;20032;-84
2023/07/20 00:18:13;;;;;;;15.55;6.88;;;;;;;26.39;71.50;100088.88;5062845;28;20508;-84
2023/07/20 00:20:39;;;;;;;20.77;7.28;;;;;;;26.36;71.09;100094.88;5074627;28;20059;-86
2023/07/20 00:23:05;;;;;;;14.35;5.63;;;;;;;26.37;70.87;100096.53;5077264;28;20031;-83
2023/07/20 00:25:30;;;;;;;27.58;6.00;;;;;;;26.41;70.29;100097.75;5075250;28;20028;-84
2023/07/20 00:27:56;;;;;;;16.35;6.82;;;;;;;26.22;70.18;100083.22;5071303;28;20055;-82
2023/07/20 00:30:21;;;;;;;15.68;5.90;;;;;;;26.32;69.87;100099.19;5062277;28;20059;-83
2023/07/20 00:32:47;;;;;;;13.60;7.38;;;;;;;26.26;69.06;100094.63;5057042;28;20035;-83
2023/07/20 00:35:13;;;;;;;15.35;7.28;;;;;;;26.24;68.59;100094.00;5054537;28;20481;-84
2023/07/20 00:37:39;;;;;;;18.67;6.97;;;;;;;26.18;68.33;100097.72;5053127;28;20118;-84
2023/07/20 00:40:07;;;;;;;11.50;6.05;;;;;;;26.17;68.57;100107.94;5052601;28;20476;-84
2023/07/20 00:42:32;;;;;;;15.55;5.40;;;;;;;26.08;69.10;100098.31;5052818;28;20052;-84
2023/07/20 00:44:58;;;;;;;11.63;6.53;;;;;;;26.03;68.91;100078.03;5052804;28;20064;-84
2023/07/20 00:47:24;;;;;;;22.67;6.93;;;;;;;26.06;68.99;100089.41;5050720;28;20485;-84
2023/07/20 00:49:51;;;;;;;18.05;6.53;;;;;;;25.93;68.92;100070.38;5051505;28;20119;-84
2023/07/20 00:52:18;;;;;;;15.48;8.48;;;;;;;25.95;69.02;100071.81;5050728;28;20091;-84
2023/07/20 00:54:44;;;;;;;9.85;6.35;;;;;;;25.93;68.51;100084.97;5052349;28;20485;-84
2023/07/20 00:57:09;;;;;;;21.85;7.03;;;;;;;25.87;68.43;100091.44;5050778;28;20081;-84
2023/07/20 00:59:35;;;;;;;20.67;6.95;;;;;;;25.86;68.58;100105.47;5050997;28;20075;-84
2023/07/20 01:02:02;;;;;;;10.02;6.20;;;;;;;25.77;68.60;100085.69;5052062;28;20029;-83
2023/07/20 01:04:28;;;;;;;18.65;6.88;;;;;;;25.79;68.42;100093.69;5051022;28;20115;-83
2023/07/20 01:07:09;;;;;;;17.67;6.63;;;;;;;25.83;68.21;100095.75;5052657;28;20021;-83
2023/07/20 01:09:52;;;;;;;18.85;6.32;;;;;;;25.79;67.36;100102.81;5052371;28;20086;-83
2023/07/20 01:12:30;;;;;;;16.15;5.80;;;;;;;25.79;67.09;100091.78;5052040;28;20047;-87
2023/07/20 01:14:56;;;;;;;30.55;7.53;;;;;;;25.74;66.87;100088.91;5051742;28;20025;-83
2023/07/20 01:17:21;;;;;;;22.55;6.28;;;;;;;25.74;67.29;100086.16;5051483;28;20033;-83
2023/07/20 01:19:47;;;;;;;10.88;6.60;;;;;;;25.58;67.39;100074.97;5051877;28;20469;-85
2023/07/20 01:22:31;;;;;;;24.67;6.53;;;;;;;25.68;67.84;100087.09;5052287;28;20033;-83
2023/07/20 01:25:02;;;;;;;13.52;6.63;;;;;;;25.65;67.42;100095.84;5051587;28;20063;-84
2023/07/20 01:28:08;;;;;;;18.17;6.75;;;;;;;25.63;67.42;100095.22;5050950;28;20393;-84
2023/07/20 01:30:55;;;;;;;29.45;7.45;;;;;;;25.63;67.23;100094.38;5049020;28;20504;-85
2023/07/20 01:33:22;;;;;;;18.58;6.65;;;;;;;25.63;66.79;100094.38;5048231;28;20489;-84
2023/07/20 01:35:54;;;;;;;24.05;7.07;;;;;;;25.65;66.29;100117.88;5047981;28;20053;-83
2023/07/20 01:38:21;;;;;;;13.20;7.15;;;;;;;25.54;66.02;100107.66;5046408;28;20029;-83
2023/07/20 01:40:47;;;;;;;11.90;5.55;;;;;;;25.62;65.75;100101.81;5046219;28;20040;-84
2023/07/20 01:43:13;;;;;;;15.10;6.65;;;;;;;25.64;65.33;100102.41;5046282;28;20562;-83
2023/07/20 01:45:39;;;;;;;8.38;5.68;;;;;;;25.69;64.56;100126.50;5046117;28;20033;-85
2023/07/20 01:48:05;;;;;;;11.10;5.32;;;;;;;25.55;63.16;100163.56;5046232;28;20080;-83
2023/07/20 01:50:30;;;;;;;8.95;5.57;;;;;;;25.69;63.46;100193.44;5045921;28;20082;-85
2023/07/20 01:52:57;;;;;;;22.15;6.72;;;;;;;25.64;64.62;100187.81;5046245;28;20486;-84
2023/07/20 01:55:22;;;;;;;30.98;8.70;;;;;;;25.77;67.49;100217.94;5045934;28;20041;-85
2023/07/20 01:57:48;;;;;;;12.88;7.82;;;;;;;25.76;70.88;100202.47;5046024;28;20118;-86
2023/07/20 02:00:13;;;;;;;11.68;7.85;;;;;;;25.65;72.24;100178.47;5046280;28;20044;-84
2023/07/20 02:02:39;;;;;;;9.75;6.90;;;;;;;25.68;72.60;100205.56;5045882;28;20067;-86
2023/07/20 02:05:05;;;;;;;12.52;7.90;;;;;;;25.71;72.75;100191.31;5045766;28;20029;-85
2023/07/20 02:07:30;;;;;;;20.73;8.43;;;;;;;25.68;73.14;100183.53;5047382;28;20040;-83
2023/07/20 02:09:56;;;;;;;22.42;7.72;;;;;;;25.70;73.67;100200.66;5048477;28;20024;-84
2023/07/20 02:12:21;;;;;;;13.43;7.88;;;;;;;25.59;73.51;100132.59;5048569;28;20025;-84
2023/07/20 02:14:47;;;;;;;16.38;6.85;;;;;;;25.75;72.56;100164.13;5048479;28;20108;-85
2023/07/20 02:17:13;;;;;;;11.63;7.53;;;;;;;25.80;70.35;100167.88;5048202;28;20039;-84
2023/07/20 02:19:40;;;;;;;20.02;7.05;;;;;;;25.82;69.93;100160.19;5048138;28;20032;-84
2023/07/20 02:22:06;;;;;;;15.13;6.53;;;;;;;25.81;68.23;100154.91;5048013;28;20100;-85
2023/07/20 02:24:33;;;;;;;9.30;5.95;;;;;;;25.76;66.50;100133.59;5048167;28;20031;-84
2023/07/20 02:26:58;;;;;;;8.00;6.25;;;;;;;25.79;65.46;100126.75;5048361;28;20025;-85
2023/07/20 02:29:23;;;;;;;11.23;6.07;;;;;;;25.80;65.07;100126.53;5048632;28;20040;-84
2023/07/20 02:31:49;;;;;;;9.25;6.55;;;;;;;25.85;64.53;100126.66;5049006;28;20079;-85
2023/07/20 02:34:14;;;;;;;10.57;6.15;;;;;;;25.87;64.03;100127.25;5054067;28;20025;-83
2023/07/20 02:36:42;;;;;;;12.50;6.47;;;;;;;25.84;64.28;100118.66;5066870;28;20079;-86
2023/07/20 02:39:11;;;;;;;15.18;6.55;;;;;;;25.82;64.13;100105.09;5050133;28;20029;-84
2023/07/20 02:41:36;;;;;;;10.68;6.93;;;;;;;25.89;64.18;100105.84;5047284;28;20025;-85
2023/07/20 02:44:03;;;;;;;13.38;6.40;;;;;;;25.90;64.28;100101.97;5048499;28;20485;-86
2023/07/20 02:46:30;;;;;;;14.30;7.38;;;;;;;25.78;64.47;100081.00;5047001;28;20033;-84
2023/07/20 02:48:55;;;;;;;17.75;7.43;;;;;;;25.79;65.02;100099.22;5048305;28;20079;-86
2023/07/20 02:51:21;;;;;;;16.73;7.32;;;;;;;25.86;65.16;100095.28;5048439;28;20037;-84
2023/07/20 02:53:46;;;;;;;15.95;7.97;;;;;;;25.85;65.56;100081.72;5048847;28;20477;-85
2023/07/20 02:56:12;;;;;;;15.63;9.25;;;;;;;25.86;65.89;100083.41;5048455;28;20033;-86
2023/07/20 02:58:43;;;;;;;11.07;8.45;;;;;;;25.82;65.86;100072.03;5051569;28;20052;-87
2023/07/20 03:01:09;;;;;;;17.10;8.85;;;;;;;25.80;65.93;100059.56;5065279;28;20028;-83
2023/07/20 03:03:38;;;;;;;17.77;9.60;;;;;;;25.96;65.61;100076.22;5053561;28;20497;-84
2023/07/20 03:06:09;;;;;;;14.60;9.70;;;;;;;25.81;65.57;100047.47;5053435;28;20033;-85
2023/07/20 03:08:35;;;;;;;15.98;8.32;;;;;;;25.97;65.65;100075.16;5052483;28;20025;-85
2023/07/20 03:11:01;;;;;;;18.15;8.00;;;;;;;25.97;65.62;100069.66;5052021;28;20025;-84
2023/07/20 03:13:27;;;;;;;26.30;8.88;;;;;;;25.96;65.61;100062.44;5052050;28;20021;-84
2023/07/20 03:15:53;;;;;;;15.68;7.63;;;;;;;25.92;65.30;100050.25;5051899;28;20524;-83
2023/07/20 03:18:18;;;;;;;29.75;8.90;;;;;;;25.92;64.76;100039.22;5048812;28;20044;-84
2023/07/20 03:20:44;;;;;;;18.17;9.68;;;;;;;25.80;64.43;100018.25;5049685;28;20037;-84
2023/07/20 03:23:10;;;;;;;30.95;8.57;;;;;;;25.91;64.19;100025.66;5049611;28;20037;-84
2023/07/20 03:25:37;;;;;;;20.48;7.95;;;;;;;25.88;63.81;100021.47;5049070;28;20036;-87
2023/07/20 03:28:03;;;;;;;18.27;8.18;;;;;;;25.87;63.47;100003.25;5048521;28;20165;-86
2023/07/20 03:30:28;;;;;;;29.42;8.90;;;;;;;25.89;63.13;99998.38;5049251;28;20113;-85
2023/07/20 03:32:53;;;;;;;26.00;7.55;;;;;;;25.87;62.62;99983.97;5048976;28;20052;-84
2023/07/20 03:35:19;;;;;;;25.15;9.10;;;;;;;25.90;62.41;99977.97;5048918;28;20037;-85
2023/07/20 03:37:44;;;;;;;23.92;9.02;;;;;;;25.95;62.08;99972.59;5048451;28;20029;-85
2023/07/20 03:40:10;;;;;;;23.73;8.32;;;;;;;26.10;62.08;99987.81;5049032;28;20501;-85
2023/07/20 03:42:36;;;;;;;34.75;9.65;;;;;;;26.16;62.16;99973.09;5048872;28;20066;-86
2023/07/20 03:45:02;;;;;;;31.48;9.60;;;;;;;26.22;61.05;99958.31;5050199;28;20065;-84
2023/07/20 03:47:28;;;;;;;35.38;8.40;;;;;;;26.32;60.85;99950.28;5050943;28;20037;-85
2023/07/20 03:49:54;;;;;;;37.47;9.57;;;;;;;26.47;60.84;99945.94;5052108;28;20040;-83
2023/07/20 03:52:19;;;;;;;31.45;9.40;;;;;;;26.62;60.04;99928.00;5052669;28;20537;-84
2023/07/20 03:54:45;;;;;;;36.72;9.82;;;;;;;26.70;59.66;99920.16;5052472;28;20039;-83
2023/07/20 03:57:10;;;;;;;50.95;9.52;;;;;;;26.63;59.65;99908.47;5052600;28;20029;-84
2023/07/20 03:59:37;;;;;;;35.28;9.40;;;;;;;26.73;59.54;99903.09;5052161;28;20497;-83
2023/07/20 04:02:05;;;;;;;38.92;9.73;;;;;;;26.78;58.70;99905.97;5052435;28;20039;-85
2023/07/20 04:04:31;;;;;;;41.17;9.02;;;;;;;26.82;59.56;99923.72;5051716;28;20029;-84
2023/07/20 04:06:56;;;;;;;36.60;9.35;;;;;;;26.84;59.92;99938.13;5051236;28;20029;-85
2023/07/20 04:09:22;;;;;;;35.00;10.98;;;;;;;26.88;60.46;99958.59;5051846;28;20549;-86
2023/07/20 04:11:47;;;;;;;30.40;12.13;;;;;;;26.84;60.63;99956.59;5051083;28;20040;-85
2023/07/20 04:14:13;;;;;;;18.80;11.50;;;;;;;26.79;61.46;99956.47;5052372;28;20497;-84
2023/07/20 04:16:38;;;;;;;34.05;11.00;;;;;;;26.72;61.34;99955.78;5052496;28;20029;-84
2023/07/20 04:19:04;;;;;;;23.65;8.95;;;;;;;26.75;61.51;99961.66;5054374;28;20040;-84
2023/07/20 04:21:29;;;;;;;32.03;9.57;;;;;;;26.84;60.95;99965.72;5055119;28;20449;-83
2023/07/20 04:23:55;;;;;;;34.72;11.27;;;;;;;26.83;60.71;99964.03;5056574;28;20029;-83
2023/07/20 04:26:20;;;;;;;53.75;12.15;;;;;;;26.96;60.34;99949.94;5054227;28;20059;-85
2023/07/20 04:28:47;;;;;;;51.60;12.85;;;;;;;27.02;60.60;99957.25;5054762;28;20032;-85
2023/07/20 04:31:13;;;;;;;48.60;10.77;;;;;;;26.87;60.58;99942.31;5055336;28;20025;-84
2023/07/20 04:33:39;;;;;;;37.53;9.73;;;;;;;26.89;60.44;99965.81;5089195;28;20043;-85
2023/07/20 04:36:05;;;;;;;41.03;12.43;;;;;;;26.93;59.81;99960.66;5056791;28;20534;-85
2023/07/20 04:38:31;;;;;;;45.75;10.98;;;;;;;26.98;59.46;99964.34;5057151;28;20025;-83
2023/07/20 04:40:56;;;;;;;35.50;8.90;;;;;;;26.95;58.62;99975.03;5056929;28;20469;-84
2023/07/20 04:43:22;;;;;;;36.72;9.98;;;;;;;26.88;58.76;99975.16;5057311;28;20130;-83
2023/07/20 04:45:47;;;;;;;31.10;9.32;;;;;;;27.02;58.95;100006.94;5055804;28;20053;-84
2023/07/20 04:48:15;;;;;;;37.92;10.50;;;;;;;26.95;59.28;100000.72;5053747;28;20032;-84
2023/07/20 04:50:41;;;;;;;50.00;10.40;;;;;;;27.02;59.29;99998.66;5055880;28;20040;-82
2023/07/20 04:53:08;;;;;;;36.83;11.25;;;;;;;27.19;59.49;100015.22;5056558;28;20093;-85
2023/07/20 04:55:33;;;;;;;29.58;9.70;;;;;;;27.22;59.47;100020.25;5057394;28;20028;-83
2023/07/20 04:58:01;;;;;;;40.58;9.13;;;;;;;27.37;58.87;100015.00;5055668;28;20036;-82
2023/07/20 05:00:26;;;;;;;59.28;9.35;;;;;;;27.44;58.24;100001.06;5053176;28;20037;-83
2023/07/20 05:02:52;;;;;;;39.55;13.00;;;;;;;27.62;57.13;100009.13;5054570;28;20370;-84
2023/07/20 05:05:17;;;;;;;46.10;8.40;;;;;;;27.75;56.67;100022.63;5066862;28;20044;-84
2023/07/20 05:07:42;;;;;;;43.05;8.77;;;;;;;27.89;56.30;100028.63;5075883;28;20047;-87
2023/07/20 05:10:08;;;;;;;54.67;10.55;;;;;;;27.95;56.25;100028.44;5075695;28;20052;-87
2023/07/20 05:12:33;;;;;;;40.85;8.63;;;;;;;28.07;55.26;100023.69;5068434;28;20025;-84
2023/07/20 05:14:59;;;;;;;54.03;11.27;;;;;;;28.16;55.08;100018.59;5063880;28;20025;-84
2023/07/20 05:17:24;;;;;;;38.13;9.15;;;;;;;28.15;54.78;100033.50;5059774;28;20029;-85
2023/07/20 05:19:50;;;;;;;50.67;9.65;;;;;;;28.19;54.81;100075.31;5054569;28;20021;-85
2023/07/20 05:22:16;;;;;;;47.05;9.38;;;;;;;28.26;54.13;100089.78;5052400;28;20064;-83
2023/07/20 05:24:42;;;;;;;41.03;10.10;;;;;;;28.29;53.77;100075.44;5051754;28;20029;-85
2023/07/20 05:27:07;;;;;;;51.33;10.50;;;;;;;28.34;53.46;100057.03;5051152;28;20063;-83
2023/07/20 05:29:33;;;;;;;35.05;9.68;;;;;;;28.51;53.00;100101.25;5051185;28;20461;-83
2023/07/20 05:31:58;;;;;;;42.53;9.48;;;;;;;28.56;52.88;100079.19;5052028;28;21078;-84
2023/07/20 05:34:24;;;;;;;36.63;8.90;;;;;;;28.49;52.68;100073.00;5066868;28;20040;-84
2023/07/20 05:36:49;;;;;;;29.65;8.65;;;;;;;28.50;52.75;100064.44;5057181;28;20049;-84
2023/07/20 05:39:17;;;;;;;44.60;9.38;;;;;;;28.56;52.79;100068.13;5051861;28;20043;-83
2023/07/20 05:41:42;;;;;;;42.50;7.90;;;;;;;28.55;52.69;100053.44;5051152;28;20025;-84
2023/07/20 05:44:08;;;;;;;34.47;9.32;;;;;;;28.61;52.48;100054.34;5050079;28;20040;-84
2023/07/20 05:46:33;;;;;;;30.27;8.13;;;;;;;28.76;52.68;100057.34;5048918;28;20033;-84
2023/07/20 05:48:59;;;;;;;20.73;7.50;;;;;;;28.89;52.27;100073.56;5048745;28;20063;-84
2023/07/20 05:51:24;;;;;;;31.30;8.05;;;;;;;28.94;51.61;100079.16;5049553;28;20037;-85
2023/07/20 05:53:50;;;;;;;33.38;8.15;;;;;;;28.93;51.47;100080.25;5049787;28;20051;-84
2023/07/20 05:56:15;;;;;;;52.13;9.38;;;;;;;29.04;51.38;100082.06;5049293;28;20064;-84
2023/07/20 05:58:40;;;;;;;55.75;13.93;;;;;;;29.06;51.56;100090.94;5049636;28;20029;-85
2023/07/20 06:01:06;;;;;;;33.58;9.85;;;;;;;29.14;51.23;100084.13;5049486;28;20033;-84
2023/07/20 06:03:33;;;;;;;89.72;27.38;;;;;;;29.03;51.24;100052.69;5049525;28;20025;-83
2023/07/20 06:06:02;;;;;;;53.67;9.50;;;;;;;29.25;50.96;100085.09;5049668;28;20477;-84
2023/07/20 06:08:28;;;;;;;52.42;11.77;;;;;;;29.25;51.20;100083.16;5050078;28;20071;-84
2023/07/20 06:10:54;;;;;;;60.50;12.50;;;;;;;29.20;51.15;100073.94;5049096;28;20417;-84
2023/07/20 06:13:20;;;;;;;31.27;8.40;;;;;;;29.37;51.16;100096.88;5048953;28;20029;-84
2023/07/20 06:15:45;;;;;;;37.20;8.57;;;;;;;29.36;50.99;100090.47;5050348;28;20059;-85
2023/07/20 06:18:11;;;;;;;24.88;9.05;;;;;;;29.56;50.50;100107.34;5049748;28;20029;-84
2023/07/20 06:20:36;;;;;;;45.10;8.90;;;;;;;29.79;50.20;100105.31;5049320;28;20093;-85
2023/07/20 06:23:02;;;;;;;28.35;8.88;;;;;;;29.98;50.36;100110.25;5050734;28;20025;-85
2023/07/20 06:25:27;;;;;;;22.10;9.15;;;;;;;30.14;49.79;100114.84;5052566;28;20025;-83
2023/07/20 06:27:56;;;;;;;40.58;9.88;;;;;;;30.32;49.16;100115.50;5054869;28;20067;-84
2023/07/20 06:30:21;;;;;;;40.38;9.70;;;;;;;30.29;49.37;100102.16;5058667;28;20067;-85
2023/07/20 06:32:47;;;;;;;37.17;7.32;;;;;;;30.28;48.05;100114.38;5052062;28;20029;-84
2023/07/20 06:35:13;;;;;;;45.90;7.47;;;;;;;30.27;46.60;100113.56;5056898;28;20040;-84
2023/07/20 06:37:38;;;;;;;31.00;5.43;;;;;;;30.18;45.57;100092.94;5060323;28;20128;-84
2023/07/20 06:40:04;;;;;;;20.00;5.63;;;;;;;30.18;44.45;100088.22;5057481;28;20094;-84
2023/07/20 06:42:30;;;;;;;49.30;7.72;;;;;;;30.21;44.65;100104.31;5059173;28;20048;-83
2023/07/20 06:44:57;;;;;;;23.77;6.03;;;;;;;30.18;44.44;100099.31;5065580;28;20025;-84
2023/07/20 06:47:22;;;;;;;13.30;4.90;;;;;;;30.12;43.92;100108.69;5068104;28;20028;-86
2023/07/20 06:49:48;;;;;;;36.13;5.82;;;;;;;30.23;43.47;100118.78;5067784;28;20039;-82
2023/07/20 06:52:14;;;;;;;27.73;4.85;;;;;;;30.17;43.38;100105.97;5067792;28;20053;-84
2023/07/20 06:54:39;;;;;;;26.45;6.15;;;;;;;30.14;43.86;100105.69;5067000;28;20029;-84
2023/07/20 06:57:05;;;;;;;17.58;4.50;;;;;;;30.10;43.54;100094.28;5063476;28;20025;-83
2023/07/20 06:59:31;;;;;;;34.60;6.28;;;;;;;30.11;44.01;100081.25;5064776;28;20044;-84
2023/07/20 07:02:43;;;;;;;46.97;5.97;;;;;;;30.20;44.09;100088.81;5062006;28;20047;-84
2023/07/20 07:05:08;;;;;;;40.90;6.22;;;;;;;30.13;44.08;100048.50;5066079;28;20130;-85
2023/07/20 07:07:34;;;;;;;24.75;5.35;;;;;;;30.21;44.10;100059.94;5059143;28;20069;-84
2023/07/20 07:10:01;;;;;;;23.73;5.60;;;;;;;30.16;44.46;100045.19;5057256;28;20059;-83
2023/07/20 07:12:26;;;;;;;16.13;4.72;;;;;;;30.12;44.18;100041.31;5056253;28;20028;-85
2023/07/20 07:14:52;;;;;;;15.95;5.45;;;;;;;30.08;44.82;100029.91;5056744;28;20063;-83
2023/07/20 07:17:18;;;;;;;20.73;5.32;;;;;;;30.03;47.26;100018.75;5056859;28;20025;-84
2023/07/20 07:19:44;;;;;;;43.00;7.85;;;;;;;30.02;47.82;100019.88;5056947;28;20032;-84
2023/07/20 07:22:09;;;;;;;18.85;4.82;;;;;;;30.01;46.63;100015.44;5057931;28;20029;-84
2023/07/20 07:24:35;;;;;;;63.60;8.20;;;;;;;30.00;46.37;100008.19;5058670;28;20093;-85
2023/07/20 07:27:02;;;;;;;91.32;12.68;;;;;;;30.22;47.19;100020.00;5058642;28;20025;-84
2023/07/20 07:29:27;;;;;;;37.85;12.48;;;;;;;30.34;47.09;100018.94;5061044;28;20029;-84
2023/07/20 07:31:53;;;;;;;27.80;8.57;;;;;;;30.52;45.33;100037.97;5057598;28;20035;-83
2023/07/20 07:34:18;;;;;;;59.80;11.77;;;;;;;30.58;45.84;100059.91;5058258;28;20028;-83
2023/07/20 07:36:47;;;;;;;45.17;9.52;;;;;;;30.72;45.89;100071.38;5058909;28;20052;-83
2023/07/20 07:39:13;;;;;;;27.60;6.80;;;;;;;30.71;44.79;100078.88;5059591;28;20037;-82
2023/07/20 07:41:39;;;;;;;43.90;7.35;;;;;;;30.72;44.69;100071.38;5061800;28;20032;-84
2023/07/20 07:44:05;;;;;;;24.80;5.15;;;;;;;30.91;44.47;100075.38;5057070;28;20021;-85
2023/07/20 07:46:30;;;;;;;42.45;7.60;;;;;;;31.05;44.69;100076.56;5058611;28;20029;-82
2023/07/20 07:48:56;;;;;;;21.63;6.22;;;;;;;31.09;43.52;100083.25;5057674;28;20025;-83
2023/07/20 07:51:24;;;;;;;23.80;5.38;;;;;;;31.09;43.39;100082.41;5058411;28;20489;-86
2023/07/20 07:53:49;;;;;;;16.42;4.57;;;;;;;30.96;43.68;100057.91;5057059;28;20028;-82
2023/07/20 07:56:16;;;;;;;14.10;4.15;;;;;;;30.86;43.22;100043.94;5058083;28;20083;-84
2023/07/20 07:58:44;;;;;;;21.27;5.63;;;;;;;30.87;43.56;100052.00;5058311;28;20033;-84
2023/07/20 08:01:09;;;;;;;16.10;4.38;;;;;;;30.71;43.48;100058.59;5057270;28;20037;-85
2023/07/20 08:03:36;;;;;;;22.55;5.50;;;;;;;30.59;43.76;100049.66;5055578;28;20033;-83
2023/07/20 08:06:04;;;;;;;26.88;4.28;;;;;;;30.71;43.21;100065.00;5056223;28;20029;-82
2023/07/20 08:08:30;;;;;;;36.47;6.63;;;;;;;30.67;42.96;100057.50;5054937;28;20191;-83
2023/07/20 08:10:55;;;;;;;35.95;6.93;;;;;;;30.79;42.68;100055.31;5055933;28;20032;-84
2023/07/20 08:13:21;;;;;;;23.65;4.68;;;;;;;30.76;42.60;100045.56;5062229;28;20028;-82
2023/07/20 08:15:51;;;;;;;20.42;4.82;;;;;;;30.73;42.40;100057.22;5061254;28;20029;-84
2023/07/20 08:18:17;;;;;;;28.48;5.90;;;;;;;30.57;42.43;100047.16;5056998;28;20032;-84
2023/07/20 08:20:46;;;;;;;16.42;4.05;;;;;;;30.57;42.73;100057.44;5056537;28;20025;-84
2023/07/20 08:23:12;;;;;;;23.95;4.50;;;;;;;30.71;42.87;100061.38;5057068;28;20029;-83
2023/07/20 08:25:41;;;;;;;16.75;4.40;;;;;;;30.75;42.41;100059.72;5052647;28;20066;-84
2023/07/20 08:28:07;;;;;;;17.95;4.00;;;;;;;30.86;41.93;100067.00;5052138;28;20116;-85
2023/07/20 08:30:41;;;;;;;19.80;5.40;;;;;;;30.93;42.19;100058.41;5051005;28;20032;-85
2023/07/20 08:33:06;;;;;;;19.73;5.70;;;;;;;31.13;41.99;100047.41;5051187;28;20032;-85
2023/07/20 08:35:32;;;;;;;46.08;6.13;;;;;;;31.39;41.79;100059.41;5053792;28;20033;-85
2023/07/20 08:37:57;;;;;;;22.05;4.53;;;;;;;31.52;41.99;100045.03;5054962;28;20041;-84
2023/07/20 08:40:23;;;;;;;9.25;3.90;;;;;;;31.60;41.04;100055.59;5053464;28;20378;-82
2023/07/20 08:42:49;;;;;;;18.25;4.40;;;;;;;31.68;40.95;100050.31;5052252;28;20443;-84
2023/07/20 08:45:17;;;;;;;17.00;4.93;;;;;;;31.93;40.28;100066.16;5051500;28;20021;-84
2023/07/20 08:47:45;;;;;;;27.77;10.95;;;;;;;31.93;40.48;100055.03;5051761;28;20032;-86
2023/07/20 08:50:12;;;;;;;17.50;4.32;;;;;;;32.03;39.95;100065.38;5051130;28;20073;-85
2023/07/20 08:52:38;;;;;;;18.88;4.63;;;;;;;32.15;39.88;100055.63;5051354;28;20029;-83
2023/07/20 08:55:04;;;;;;;17.42;5.47;;;;;;;32.20;39.82;100054.78;5050858;28;20090;-83
2023/07/20 08:57:32;;;;;;;12.65;3.40;;;;;;;32.15;39.96;100047.25;5050882;28;20032;-86
2023/07/20 09:00:00;;;;;;;22.23;5.47;;;;;;;32.03;40.04;100043.94;5049956;28;20611;-83
2023/07/20 09:02:27;;;;;;;15.73;4.53;;;;;;;32.13;39.90;100049.50;5050616;28;20029;-87
2023/07/20 09:04:52;;;;;;;18.50;4.18;;;;;;;31.90;40.25;100044.47;5051090;28;20028;-84
2023/07/20 09:07:20;;;;;;;15.25;5.07;;;;;;;31.96;39.80;100035.00;5051782;28;20029;-83
2023/07/20 09:09:45;;;;;;;13.02;4.57;;;;;;;32.08;39.85;100052.28;5049465;28;20121;-86
2023/07/20 09:12:15;;;;;;;22.08;5.57;;;;;;;32.01;39.82;100042.53;5050467;28;20545;-83
2023/07/20 09:14:45;;;;;;;23.20;4.95;;;;;;;31.96;39.58;100034.16;5049960;28;20029;-85
2023/07/20 09:17:15;;;;;;;20.52;5.57;;;;;;;32.10;40.01;100038.94;5050458;28;20115;-85
2023/07/20 09:19:47;;;;;;;20.42;5.18;;;;;;;32.17;39.61;100033.09;5050746;28;20052;-84
2023/07/20 09:22:13;;;;;;;19.40;4.95;;;;;;;32.35;39.85;100041.66;5050285;28;20557;-87
2023/07/20 09:24:39;;;;;;;17.73;5.00;;;;;;;32.42;39.58;100038.56;5051159;28;20071;-82
2023/07/20 09:27:04;;;;;;;29.85;4.75;;;;;;;32.40;38.62;100026.06;5050380;28;20032;-82
2023/07/20 09:29:30;;;;;;;30.95;5.50;;;;;;;32.39;38.89;100029.94;5050574;28;20389;-87
2023/07/20 09:32:19;;;;;;;20.33;5.93;;;;;;;32.44;38.59;100027.16;5050567;28;20064;-88
2023/07/20 09:34:44;;;;;;;27.63;6.15;;;;;;;32.41;38.20;100016.59;5050659;28;20021;-84
2023/07/20 09:37:10;;;;;;;19.85;5.32;;;;;;;32.56;39.11;100030.50;5052308;28;20159;-85
2023/07/20 09:39:45;;;;;;;16.50;4.15;;;;;;;32.66;38.26;100024.91;5052130;28;20029;-87
2023/07/20 09:42:14;;;;;;;14.63;4.47;;;;;;;32.60;38.15;99998.19;5055140;28;20035;-86
2023/07/20 09:44:43;;;;;;;15.35;4.38;;;;;;;32.80;37.52;100017.59;5068625;28;20035;-88
2023/07/20 09:47:08;;;;;;;28.52;6.03;;;;;;;32.83;37.56;100009.50;5070542;28;20031;-89
2023/07/20 09:49:39;;;;;;;14.82;5.63;;;;;;;32.86;37.60;99999.72;5070362;28;20017;-86
2023/07/20 09:52:05;;;;;;;35.67;6.22;;;;;;;32.93;37.36;99999.44;5075342;28;20036;-88
2023/07/20 09:54:32;;;;;;;23.15;5.85;;;;;;;32.96;37.06;99996.06;5074856;28;20033;-87
2023/07/20 09:56:58;;;;;;;26.88;5.05;;;;;;;33.11;36.10;99998.78;5072234;28;20055;-86
2023/07/20 09:59:23;;;;;;;28.15;5.78;;;;;;;33.17;35.39;99997.63;5070976;28;20033;-88
2023/07/20 10:01:49;;;;;;;15.13;5.15;;;;;;;33.07;34.87;99987.34;5069893;28;20039;-88
2023/07/20 10:04:18;;;;;;;19.38;6.05;;;;;;;33.25;35.15;99997.84;5061239;28;20631;-89
2023/07/20 10:06:47;;;;;;;13.73;4.95;;;;;;;33.33;35.69;99980.50;5061178;28;20025;-89
2023/07/20 10:09:15;;;;;;;17.52;5.05;;;;;;;33.54;35.10;99992.34;5058020;28;20082;-88
2023/07/20 10:11:48;;;;;;;10.00;4.72;;;;;;;33.60;35.07;99976.44;5049351;28;20021;-88
2023/07/20 10:14:18;;;;;;;17.77;5.05;;;;;;;33.59;34.96;99967.22;5050229;28;20112;-88
2023/07/20 10:16:51;;;;;;;20.92;4.95;;;;;;;33.70;35.01;99973.56;5050688;28;20032;-88
2023/07/20 10:19:23;;;;;;;14.88;5.32;;;;;;;33.76;34.56;99966.81;5033610;28;20951;-87
2023/07/20 10:21:56;;;;;;;23.70;5.22;;;;;;;33.86;34.60;99950.78;5019706;28;20034;-89
2023/07/20 10:24:23;;;;;;;28.77;6.20;;;;;;;33.98;34.85;99958.75;5027846;28;20152;-88
2023/07/20 10:26:49;;;;;;;15.43;5.55;;;;;;;34.20;34.80;99964.69;5028055;28;20022;-88
2023/07/20 10:29:15;;;;;;;22.85;4.50;;;;;;;34.29;34.03;99948.94;5029236;28;20424;-88
2023/07/20 10:31:44;;;;;;;24.23;6.10;;;;;;;34.30;33.98;99950.63;5014160;28;20049;-87
2023/07/20 10:34:10;;;;;;;42.30;6.25;;;;;;;34.45;34.10;99950.44;5028784;28;20040;-88
2023/07/20 10:36:51;;;;;;;17.63;5.50;;;;;;;34.69;33.61;99960.78;5028136;28;20533;-86
2023/07/20 10:39:43;;;;;;;17.10;5.57;;;;;;;34.65;37.00;99942.97;5027610;28;20116;-86
2023/07/20 10:42:10;;;;;;;23.88;6.68;;;;;;;34.66;39.15;99941.81;5028230;28;20037;-88
2023/07/20 10:44:42;;;;;;;21.45;5.63;;;;;;;34.85;34.56;99951.88;5037405;28;20045;-88
2023/07/20 10:47:12;;;;;;;15.65;5.32;;;;;;;34.94;35.09;99943.66;5034730;28;20074;-89
2023/07/20 10:50:14;;;;;;;16.27;5.35;;;;;;;34.45;41.40;99947.66;5027843;28;20057;-89
2023/07/20 10:52:42;;;;;;;31.98;6.05;;;;;;;34.22;42.53;99942.88;4968978;28;20046;-90
2023/07/20 10:55:21;;;;;;;22.38;7.55;;;;;;;33.75;44.30;99945.59;4969234;28;20045;-88
2023/07/20 10:58:06;;;;;;;28.25;6.25;;;;;;;33.45;44.82;99940.28;5004978;28;20046;-89
2023/07/20 11:00:32;;;;;;;26.42;6.00;;;;;;;33.06;44.64;99935.50;4990479;28;20493;-88
2023/07/20 11:03:02;;;;;;;26.52;6.38;;;;;;;32.88;44.82;99938.97;4990627;28;20033;-88
2023/07/20 11:05:35;;;;;;;28.17;4.93;;;;;;;33.01;45.04;99954.22;5007297;28;20064;-88
2023/07/20 11:08:04;;;;;;;28.60;6.38;;;;;;;32.74;45.85;99944.38;4990742;28;20092;-88
2023/07/20 11:10:30;;;;;;;21.13;5.90;;;;;;;32.64;46.48;99949.97;5007492;28;21152;-89
2023/07/20 11:13:22;;;;;;;20.50;6.05;;;;;;;32.37;47.22;99952.28;4990887;28;20153;-88
2023/07/20 11:16:03;;;;;;;22.80;5.80;;;;;;;32.34;47.61;99958.44;4990716;28;20029;-89
2023/07/20 11:18:29;;;;;;;31.80;6.65;;;;;;;32.02;47.46;99942.06;5002334;28;20082;-90
2023/07/20 11:20:55;;;;;;;21.23;6.03;;;;;;;32.08;46.72;99924.28;4988339;28;20152;-89